sensor_id;sensor_type;location;lat;lon;timestamp;P1;durP1;ratioP1;P2;durP2;ratioP2
53714;SDS011;39608;55.630;37.864;2024-03-08T00:01:34;20.73;;;7.28;;
53714;SDS011;39608;55.630;37.864;2024-03-08T00:06:36;15.75;;;6.25;;
53714;SDS011;39608;55.630;37.864;2024-03-08T00:11:41;8.10;;;3.92;;
53714;SDS011;39608;55.630;37.864;2024-03-08T00:16:43;6.50;;;3.42;;
53714;SDS011;39608;55.630;37.864;2024-03-08T00:21:45;6.78;;;2.97;;
53714;SDS011;39608;55.630;37.864;2024-03-08T00:26:48;9.95;;;4.10;;
53714;SDS011;39608;55.630;37.864;2024-03-08T00:31:50;5.85;;;3.47;;
53714;SDS011;39608;55.630;37.864;2024-03-08T00:36:52;7.72;;;3.42;;
53714;SDS011;39608;55.630;37.864;2024-03-08T00:41:56;4.85;;;3.20;;
53714;SDS011;39608;55.630;37.864;2024-03-08T00:46:58;4.82;;;3.25;;
53714;SDS011;39608;55.630;37.864;2024-03-08T00:52:00;8.15;;;4.15;;
53714;SDS011;39608;55.630;37.864;2024-03-08T00:57:04;7.80;;;2.63;;
53714;SDS011;39608;55.630;37.864;2024-03-08T01:02:06;7.13;;;3.40;;
53714;SDS011;39608;55.630;37.864;2024-03-08T01:07:09;4.43;;;2.53;;
53714;SDS011;39608;55.630;37.864;2024-03-08T01:12:13;7.10;;;3.58;;
53714;SDS011;39608;55.630;37.864;2024-03-08T01:17:15;8.25;;;3.58;;
53714;SDS011;39608;55.630;37.864;2024-03-08T01:22:17;7.28;;;3.75;;
53714;SDS011;39608;55.630;37.864;2024-03-08T01:27:21;6.30;;;3.53;;
53714;SDS011;39608;55.630;37.864;2024-03-08T01:32:23;6.82;;;3.08;;
53714;SDS011;39608;55.630;37.864;2024-03-08T01:37:25;4.72;;;2.80;;
53714;SDS011;39608;55.630;37.864;2024-03-08T01:42:28;8.45;;;3.35;;
53714;SDS011;39608;55.630;37.864;2024-03-08T01:47:31;6.38;;;3.75;;
53714;SDS011;39608;55.630;37.864;2024-03-08T01:52:34;5.10;;;3.08;;
53714;SDS011;39608;55.630;37.864;2024-03-08T01:57:39;3.67;;;2.47;;
53714;SDS011;39608;55.630;37.864;2024-03-08T02:02:41;5.35;;;2.50;;
53714;SDS011;39608;55.630;37.864;2024-03-08T02:07:44;4.18;;;2.95;;
53714;SDS011;39608;55.630;37.864;2024-03-08T02:12:48;4.90;;;3.03;;
53714;SDS011;39608;55.630;37.864;2024-03-08T02:17:50;6.80;;;2.53;;
53714;SDS011;39608;55.630;37.864;2024-03-08T02:22:55;9.23;;;3.15;;
53714;SDS011;39608;55.630;37.864;2024-03-08T02:27:57;4.65;;;2.92;;
53714;SDS011;39608;55.630;37.864;2024-03-08T02:32:59;6.35;;;3.60;;
53714;SDS011;39608;55.630;37.864;2024-03-08T02:38:03;4.63;;;2.78;;
53714;SDS011;39608;55.630;37.864;2024-03-08T02:43:05;4.03;;;2.60;;
53714;SDS011;39608;55.630;37.864;2024-03-08T02:48:07;7.47;;;2.85;;
53714;SDS011;39608;55.630;37.864;2024-03-08T02:53:11;5.60;;;3.20;;
53714;SDS011;39608;55.630;37.864;2024-03-08T02:58:14;7.20;;;3.10;;
53714;SDS011;39608;55.630;37.864;2024-03-08T03:03:16;5.50;;;3.15;;
53714;SDS011;39608;55.630;37.864;2024-03-08T03:08:19;4.55;;;2.80;;
53714;SDS011;39608;55.630;37.864;2024-03-08T03:13:21;2.97;;;2.03;;
53714;SDS011;39608;55.630;37.864;2024-03-08T03:18:23;6.15;;;3.30;;
53714;SDS011;39608;55.630;37.864;2024-03-08T03:23:28;5.40;;;3.08;;
53714;SDS011;39608;55.630;37.864;2024-03-08T03:28:33;5.85;;;2.55;;
53714;SDS011;39608;55.630;37.864;2024-03-08T03:33:35;6.60;;;3.20;;
53714;SDS011;39608;55.630;37.864;2024-03-08T03:38:39;6.43;;;3.08;;
53714;SDS011;39608;55.630;37.864;2024-03-08T03:43:42;5.75;;;3.50;;
53714;SDS011;39608;55.630;37.864;2024-03-08T03:48:44;4.43;;;2.72;;
53714;SDS011;39608;55.630;37.864;2024-03-08T03:53:47;5.90;;;3.35;;
53714;SDS011;39608;55.630;37.864;2024-03-08T03:58:49;4.57;;;2.47;;
53714;SDS011;39608;55.630;37.864;2024-03-08T04:03:51;5.47;;;3.28;;
53714;SDS011;39608;55.630;37.864;2024-03-08T04:08:55;4.88;;;3.38;;
53714;SDS011;39608;55.630;37.864;2024-03-08T04:13:57;6.40;;;2.88;;
53714;SDS011;39608;55.630;37.864;2024-03-08T04:18:59;5.82;;;3.42;;
53714;SDS011;39608;55.630;37.864;2024-03-08T04:24:06;6.45;;;3.65;;
53714;SDS011;39608;55.630;37.864;2024-03-08T04:29:25;5.85;;;2.42;;
53714;SDS011;39608;55.630;37.864;2024-03-08T04:34:28;7.60;;;4.50;;
53714;SDS011;39608;55.630;37.864;2024-03-08T04:39:31;3.67;;;2.63;;
53714;SDS011;39608;55.630;37.864;2024-03-08T04:44:33;7.63;;;4.50;;
53714;SDS011;39608;55.630;37.864;2024-03-08T04:49:35;7.90;;;4.60;;
53714;SDS011;39608;55.630;37.864;2024-03-08T04:54:39;7.70;;;5.18;;
53714;SDS011;39608;55.630;37.864;2024-03-08T04:59:41;8.05;;;4.28;;
53714;SDS011;39608;55.630;37.864;2024-03-08T05:04:43;6.80;;;4.85;;
53714;SDS011;39608;55.630;37.864;2024-03-08T05:09:46;6.93;;;4.35;;
53714;SDS011;39608;55.630;37.864;2024-03-08T05:14:51;11.00;;;4.82;;
53714;SDS011;39608;55.630;37.864;2024-03-08T05:19:54;10.55;;;5.10;;
53714;SDS011;39608;55.630;37.864;2024-03-08T05:24:57;9.93;;;5.00;;
53714;SDS011;39608;55.630;37.864;2024-03-08T05:29:59;9.27;;;4.95;;
53714;SDS011;39608;55.630;37.864;2024-03-08T05:35:01;16.05;;;4.68;;
53714;SDS011;39608;55.630;37.864;2024-03-08T05:40:09;7.22;;;4.35;;
53714;SDS011;39608;55.630;37.864;2024-03-08T05:45:11;11.35;;;5.85;;
53714;SDS011;39608;55.630;37.864;2024-03-08T05:50:14;9.63;;;5.38;;
53714;SDS011;39608;55.630;37.864;2024-03-08T05:55:18;9.50;;;5.97;;
53714;SDS011;39608;55.630;37.864;2024-03-08T06:00:21;6.13;;;4.60;;
53714;SDS011;39608;55.630;37.864;2024-03-08T06:05:24;9.13;;;5.10;;
53714;SDS011;39608;55.630;37.864;2024-03-08T06:10:28;11.07;;;5.18;;
53714;SDS011;39608;55.630;37.864;2024-03-08T06:15:30;10.75;;;5.50;;
53714;SDS011;39608;55.630;37.864;2024-03-08T06:20:32;8.30;;;5.60;;
53714;SDS011;39608;55.630;37.864;2024-03-08T06:25:35;12.05;;;6.25;;
53714;SDS011;39608;55.630;37.864;2024-03-08T06:30:37;11.57;;;5.88;;
53714;SDS011;39608;55.630;37.864;2024-03-08T06:35:39;9.90;;;6.32;;
53714;SDS011;39608;55.630;37.864;2024-03-08T06:40:43;8.65;;;5.60;;
53714;SDS011;39608;55.630;37.864;2024-03-08T06:45:48;6.00;;;3.30;;
53714;SDS011;39608;55.630;37.864;2024-03-08T06:50:50;10.35;;;5.22;;
53714;SDS011;39608;55.630;37.864;2024-03-08T06:55:53;8.90;;;5.15;;
53714;SDS011;39608;55.630;37.864;2024-03-08T07:00:55;7.90;;;5.30;;
53714;SDS011;39608;55.630;37.864;2024-03-08T07:06:00;9.02;;;5.60;;
53714;SDS011;39608;55.630;37.864;2024-03-08T07:11:04;7.95;;;4.40;;
53714;SDS011;39608;55.630;37.864;2024-03-08T07:16:06;8.48;;;5.00;;
53714;SDS011;39608;55.630;37.864;2024-03-08T07:21:08;12.73;;;5.70;;
53714;SDS011;39608;55.630;37.864;2024-03-08T07:26:16;8.18;;;5.03;;
53714;SDS011;39608;55.630;37.864;2024-03-08T07:31:19;11.73;;;5.73;;
53714;SDS011;39608;55.630;37.864;2024-03-08T07:36:27;11.48;;;6.05;;
53714;SDS011;39608;55.630;37.864;2024-03-08T07:41:30;7.85;;;5.10;;
53714;SDS011;39608;55.630;37.864;2024-03-08T07:46:34;10.85;;;5.13;;
53714;SDS011;39608;55.630;37.864;2024-03-08T07:51:36;9.68;;;4.45;;
53714;SDS011;39608;55.630;37.864;2024-03-08T07:56:40;11.18;;;5.20;;
53714;SDS011;39608;55.630;37.864;2024-03-08T08:01:42;9.20;;;5.20;;
53714;SDS011;39608;55.630;37.864;2024-03-08T08:06:44;9.57;;;6.15;;
53714;SDS011;39608;55.630;37.864;2024-03-08T08:11:48;9.35;;;5.25;;
53714;SDS011;39608;55.630;37.864;2024-03-08T08:16:50;10.20;;;5.70;;
53714;SDS011;39608;55.630;37.864;2024-03-08T08:21:53;9.07;;;5.85;;
53714;SDS011;39608;55.630;37.864;2024-03-08T08:26:56;13.40;;;5.57;;
53714;SDS011;39608;55.630;37.864;2024-03-08T08:31:58;10.40;;;5.72;;
53714;SDS011;39608;55.630;37.864;2024-03-08T08:37:00;12.50;;;6.40;;
53714;SDS011;39608;55.630;37.864;2024-03-08T08:42:04;10.68;;;6.18;;
53714;SDS011;39608;55.630;37.864;2024-03-08T08:47:09;10.57;;;6.20;;
53714;SDS011;39608;55.630;37.864;2024-03-08T08:52:11;6.90;;;5.70;;
53714;SDS011;39608;55.630;37.864;2024-03-08T08:57:15;7.75;;;5.53;;
53714;SDS011;39608;55.630;37.864;2024-03-08T09:02:17;8.55;;;4.38;;
53714;SDS011;39608;55.630;37.864;2024-03-08T09:07:21;9.48;;;5.80;;
53714;SDS011;39608;55.630;37.864;2024-03-08T09:12:25;9.48;;;6.18;;
53714;SDS011;39608;55.630;37.864;2024-03-08T09:17:28;11.95;;;5.82;;
53714;SDS011;39608;55.630;37.864;2024-03-08T09:22:30;10.18;;;5.75;;
53714;SDS011;39608;55.630;37.864;2024-03-08T09:27:34;7.68;;;4.78;;
53714;SDS011;39608;55.630;37.864;2024-03-08T09:32:36;10.80;;;5.57;;
53714;SDS011;39608;55.630;37.864;2024-03-08T09:37:38;10.50;;;6.45;;
53714;SDS011;39608;55.630;37.864;2024-03-08T09:42:42;13.35;;;6.30;;
53714;SDS011;39608;55.630;37.864;2024-03-08T09:47:44;7.25;;;5.25;;
53714;SDS011;39608;55.630;37.864;2024-03-08T09:52:47;8.35;;;6.22;;
53714;SDS011;39608;55.630;37.864;2024-03-08T09:57:52;9.05;;;6.22;;
53714;SDS011;39608;55.630;37.864;2024-03-08T10:03:12;12.48;;;6.95;;
53714;SDS011;39608;55.630;37.864;2024-03-08T10:08:15;8.70;;;6.15;;
53714;SDS011;39608;55.630;37.864;2024-03-08T10:13:19;11.73;;;6.25;;
53714;SDS011;39608;55.630;37.864;2024-03-08T10:18:21;26.33;;;7.30;;
53714;SDS011;39608;55.630;37.864;2024-03-08T10:23:23;13.50;;;6.55;;
53714;SDS011;39608;55.630;37.864;2024-03-08T10:28:26;10.40;;;6.68;;
53714;SDS011;39608;55.630;37.864;2024-03-08T10:33:28;12.75;;;5.78;;
53714;SDS011;39608;55.630;37.864;2024-03-08T10:38:30;15.68;;;7.07;;
53714;SDS011;39608;55.630;37.864;2024-03-08T10:43:37;10.93;;;6.50;;
53714;SDS011;39608;55.630;37.864;2024-03-08T10:48:55;11.68;;;7.15;;
53714;SDS011;39608;55.630;37.864;2024-03-08T10:53:59;13.45;;;6.85;;
53714;SDS011;39608;55.630;37.864;2024-03-08T10:59:04;10.18;;;6.63;;
53714;SDS011;39608;55.630;37.864;2024-03-08T11:04:07;13.88;;;6.65;;
53714;SDS011;39608;55.630;37.864;2024-03-08T11:09:11;11.65;;;6.72;;
53714;SDS011;39608;55.630;37.864;2024-03-08T11:14:43;11.40;;;6.95;;
53714;SDS011;39608;55.630;37.864;2024-03-08T11:19:49;12.20;;;7.03;;
53714;SDS011;39608;55.630;37.864;2024-03-08T11:24:52;11.68;;;7.05;;
53714;SDS011;39608;55.630;37.864;2024-03-08T11:30:02;14.63;;;6.50;;
53714;SDS011;39608;55.630;37.864;2024-03-08T11:35:17;9.77;;;6.10;;
53714;SDS011;39608;55.630;37.864;2024-03-08T11:40:20;8.90;;;5.97;;
53714;SDS011;39608;55.630;37.864;2024-03-08T11:45:24;8.95;;;5.78;;
53714;SDS011;39608;55.630;37.864;2024-03-08T11:50:26;9.52;;;5.93;;
53714;SDS011;39608;55.630;37.864;2024-03-08T11:55:28;12.25;;;6.65;;
53714;SDS011;39608;55.630;37.864;2024-03-08T12:00:32;9.82;;;6.28;;
53714;SDS011;39608;55.630;37.864;2024-03-08T12:05:38;12.00;;;6.15;;
53714;SDS011;39608;55.630;37.864;2024-03-08T12:10:40;10.50;;;5.32;;
53714;SDS011;39608;55.630;37.864;2024-03-08T12:15:44;10.02;;;6.03;;
53714;SDS011;39608;55.630;37.864;2024-03-08T12:20:47;12.65;;;6.78;;
53714;SDS011;39608;55.630;37.864;2024-03-08T12:25:50;10.70;;;6.30;;
53714;SDS011;39608;55.630;37.864;2024-03-08T12:30:53;9.40;;;4.88;;
53714;SDS011;39608;55.630;37.864;2024-03-08T12:35:59;8.50;;;5.70;;
53714;SDS011;39608;55.630;37.864;2024-03-08T12:41:01;10.20;;;5.63;;
53714;SDS011;39608;55.630;37.864;2024-03-08T12:46:04;10.77;;;5.90;;
53714;SDS011;39608;55.630;37.864;2024-03-08T12:51:09;8.27;;;5.03;;
53714;SDS011;39608;55.630;37.864;2024-03-08T12:56:11;10.75;;;5.90;;
53714;SDS011;39608;55.630;37.864;2024-03-08T13:01:15;17.23;;;6.72;;
53714;SDS011;39608;55.630;37.864;2024-03-08T13:06:17;14.02;;;6.20;;
53714;SDS011;39608;55.630;37.864;2024-03-08T13:11:22;10.18;;;6.38;;
53714;SDS011;39608;55.630;37.864;2024-03-08T13:16:26;10.05;;;5.20;;
53714;SDS011;39608;55.630;37.864;2024-03-08T13:21:30;11.13;;;6.20;;
53714;SDS011;39608;55.630;37.864;2024-03-08T13:26:32;10.38;;;5.32;;
53714;SDS011;39608;55.630;37.864;2024-03-08T13:31:35;9.63;;;5.20;;
53714;SDS011;39608;55.630;37.864;2024-03-08T13:36:40;12.45;;;6.40;;
53714;SDS011;39608;55.630;37.864;2024-03-08T13:41:44;9.35;;;5.57;;
53714;SDS011;39608;55.630;37.864;2024-03-08T13:46:47;9.65;;;5.63;;
53714;SDS011;39608;55.630;37.864;2024-03-08T13:51:51;13.77;;;5.32;;
53714;SDS011;39608;55.630;37.864;2024-03-08T13:56:55;10.43;;;5.43;;
53714;SDS011;39608;55.630;37.864;2024-03-08T14:02:05;10.52;;;5.03;;
53714;SDS011;39608;55.630;37.864;2024-03-08T14:07:13;8.02;;;4.72;;
53714;SDS011;39608;55.630;37.864;2024-03-08T14:12:16;11.18;;;5.22;;
53714;SDS011;39608;55.630;37.864;2024-03-08T14:17:21;12.77;;;6.72;;
53714;SDS011;39608;55.630;37.864;2024-03-08T14:22:24;7.13;;;4.30;;
53714;SDS011;39608;55.630;37.864;2024-03-08T14:27:26;7.07;;;3.67;;
53714;SDS011;39608;55.630;37.864;2024-03-08T14:32:30;9.57;;;4.88;;
53714;SDS011;39608;55.630;37.864;2024-03-08T14:37:33;9.52;;;4.82;;
53714;SDS011;39608;55.630;37.864;2024-03-08T14:42:35;8.27;;;5.32;;
53714;SDS011;39608;55.630;37.864;2024-03-08T14:47:39;13.32;;;5.35;;
53714;SDS011;39608;55.630;37.864;2024-03-08T14:52:41;9.65;;;3.40;;
53714;SDS011;39608;55.630;37.864;2024-03-08T14:57:43;6.75;;;3.83;;
53714;SDS011;39608;55.630;37.864;2024-03-08T15:02:47;6.65;;;4.00;;
53714;SDS011;39608;55.630;37.864;2024-03-08T15:07:49;7.78;;;4.03;;
53714;SDS011;39608;55.630;37.864;2024-03-08T15:12:51;7.30;;;4.05;;
53714;SDS011;39608;55.630;37.864;2024-03-08T15:17:58;5.32;;;3.65;;
53714;SDS011;39608;55.630;37.864;2024-03-08T15:23:00;9.02;;;4.07;;
53714;SDS011;39608;55.630;37.864;2024-03-08T15:28:04;11.18;;;4.97;;
53714;SDS011;39608;55.630;37.864;2024-03-08T15:33:14;9.10;;;5.32;;
53714;SDS011;39608;55.630;37.864;2024-03-08T15:38:26;10.95;;;3.80;;
53714;SDS011;39608;55.630;37.864;2024-03-08T15:43:28;7.82;;;4.10;;
53714;SDS011;39608;55.630;37.864;2024-03-08T15:48:32;7.25;;;4.43;;
53714;SDS011;39608;55.630;37.864;2024-03-08T15:53:36;8.45;;;3.80;;
53714;SDS011;39608;55.630;37.864;2024-03-08T15:58:38;7.40;;;3.53;;
53714;SDS011;39608;55.630;37.864;2024-03-08T16:03:42;6.40;;;3.80;;
53714;SDS011;39608;55.630;37.864;2024-03-08T16:08:45;19.23;;;6.65;;
53714;SDS011;39608;55.630;37.864;2024-03-08T16:13:48;12.32;;;5.38;;
53714;SDS011;39608;55.630;37.864;2024-03-08T16:18:51;13.63;;;5.18;;
53714;SDS011;39608;55.630;37.864;2024-03-08T16:23:53;7.88;;;4.03;;
53714;SDS011;39608;55.630;37.864;2024-03-08T16:28:55;6.13;;;4.07;;
53714;SDS011;39608;55.630;37.864;2024-03-08T16:33:59;11.85;;;5.90;;
53714;SDS011;39608;55.630;37.864;2024-03-08T16:39:01;10.43;;;4.35;;
53714;SDS011;39608;55.630;37.864;2024-03-08T16:44:03;7.80;;;4.10;;
53714;SDS011;39608;55.630;37.864;2024-03-08T16:49:06;6.63;;;3.47;;
53714;SDS011;39608;55.630;37.864;2024-03-08T16:54:08;10.43;;;4.90;;
53714;SDS011;39608;55.630;37.864;2024-03-08T16:59:10;5.70;;;3.60;;
53714;SDS011;39608;55.630;37.864;2024-03-08T17:04:14;9.55;;;4.40;;
53714;SDS011;39608;55.630;37.864;2024-03-08T17:09:18;8.05;;;3.90;;
53714;SDS011;39608;55.630;37.864;2024-03-08T17:14:25;7.15;;;4.13;;
53714;SDS011;39608;55.630;37.864;2024-03-08T17:19:30;8.57;;;4.13;;
53714;SDS011;39608;55.630;37.864;2024-03-08T17:24:32;7.28;;;4.00;;
53714;SDS011;39608;55.630;37.864;2024-03-08T17:29:34;10.90;;;5.00;;
53714;SDS011;39608;55.630;37.864;2024-03-08T17:34:39;10.55;;;4.82;;
53714;SDS011;39608;55.630;37.864;2024-03-08T17:39:41;6.30;;;4.00;;
53714;SDS011;39608;55.630;37.864;2024-03-08T17:44:43;10.93;;;4.07;;
53714;SDS011;39608;55.630;37.864;2024-03-08T17:49:47;5.70;;;3.10;;
53714;SDS011;39608;55.630;37.864;2024-03-08T17:54:50;6.72;;;3.17;;
53714;SDS011;39608;55.630;37.864;2024-03-08T17:59:52;7.07;;;3.97;;
53714;SDS011;39608;55.630;37.864;2024-03-08T18:04:56;6.60;;;3.28;;
53714;SDS011;39608;55.630;37.864;2024-03-08T18:09:58;9.73;;;4.05;;
53714;SDS011;39608;55.630;37.864;2024-03-08T18:15:00;8.13;;;4.55;;
53714;SDS011;39608;55.630;37.864;2024-03-08T18:20:06;7.75;;;4.38;;
53714;SDS011;39608;55.630;37.864;2024-03-08T18:25:14;18.60;;;5.47;;
53714;SDS011;39608;55.630;37.864;2024-03-08T18:30:19;9.82;;;4.53;;
53714;SDS011;39608;55.630;37.864;2024-03-08T18:35:22;7.28;;;3.90;;
53714;SDS011;39608;55.630;37.864;2024-03-08T18:40:24;7.00;;;3.97;;
53714;SDS011;39608;55.630;37.864;2024-03-08T18:45:26;6.30;;;3.10;;
53714;SDS011;39608;55.630;37.864;2024-03-08T18:50:30;7.07;;;3.78;;
53714;SDS011;39608;55.630;37.864;2024-03-08T18:55:32;4.63;;;2.83;;
53714;SDS011;39608;55.630;37.864;2024-03-08T19:00:35;5.20;;;2.45;;
53714;SDS011;39608;55.630;37.864;2024-03-08T19:05:39;4.95;;;3.08;;
53714;SDS011;39608;55.630;37.864;2024-03-08T19:10:42;2.90;;;2.40;;
53714;SDS011;39608;55.630;37.864;2024-03-08T19:15:44;3.97;;;2.00;;
53714;SDS011;39608;55.630;37.864;2024-03-08T19:20:47;7.80;;;3.13;;
53714;SDS011;39608;55.630;37.864;2024-03-08T19:25:49;5.10;;;2.03;;
53714;SDS011;39608;55.630;37.864;2024-03-08T19:30:52;4.50;;;2.30;;
53714;SDS011;39608;55.630;37.864;2024-03-08T19:35:57;4.07;;;2.05;;
53714;SDS011;39608;55.630;37.864;2024-03-08T19:41:00;3.53;;;1.67;;
53714;SDS011;39608;55.630;37.864;2024-03-08T19:46:03;3.63;;;1.83;;
53714;SDS011;39608;55.630;37.864;2024-03-08T19:51:11;4.18;;;2.05;;
53714;SDS011;39608;55.630;37.864;2024-03-08T20:01:19;4.15;;;1.85;;
53714;SDS011;39608;55.630;37.864;2024-03-08T20:06:23;3.90;;;1.27;;
53714;SDS011;39608;55.630;37.864;2024-03-08T20:11:25;1.50;;;1.15;;
53714;SDS011;39608;55.630;37.864;2024-03-08T20:16:27;2.53;;;1.15;;
53714;SDS011;39608;55.630;37.864;2024-03-08T20:21:30;1.38;;;1.17;;
53714;SDS011;39608;55.630;37.864;2024-03-08T20:26:32;2.83;;;1.52;;
53714;SDS011;39608;55.630;37.864;2024-03-08T20:31:36;2.47;;;1.55;;
53714;SDS011;39608;55.630;37.864;2024-03-08T20:36:40;2.75;;;1.65;;
53714;SDS011;39608;55.630;37.864;2024-03-08T20:41:43;2.45;;;1.60;;
53714;SDS011;39608;55.630;37.864;2024-03-08T20:46:45;2.42;;;1.30;;
53714;SDS011;39608;55.630;37.864;2024-03-08T20:51:50;1.20;;;1.10;;
53714;SDS011;39608;55.630;37.864;2024-03-08T20:56:52;2.30;;;1.60;;
53714;SDS011;39608;55.630;37.864;2024-03-08T21:01:54;4.82;;;1.50;;
53714;SDS011;39608;55.630;37.864;2024-03-08T21:06:58;3.17;;;2.22;;
53714;SDS011;39608;55.630;37.864;2024-03-08T21:12:00;1.27;;;0.90;;
53714;SDS011;39608;55.630;37.864;2024-03-08T21:17:06;5.32;;;1.10;;
53714;SDS011;39608;55.630;37.864;2024-03-08T21:22:10;1.77;;;0.55;;
53714;SDS011;39608;55.630;37.864;2024-03-08T21:27:12;2.22;;;0.98;;
53714;SDS011;39608;55.630;37.864;2024-03-08T21:32:14;1.98;;;1.20;;
53714;SDS011;39608;55.630;37.864;2024-03-08T21:37:17;3.40;;;1.50;;
53714;SDS011;39608;55.630;37.864;2024-03-08T21:42:21;3.63;;;1.20;;
53714;SDS011;39608;55.630;37.864;2024-03-08T21:47:24;2.38;;;1.00;;
53714;SDS011;39608;55.630;37.864;2024-03-08T21:52:28;1.73;;;1.10;;
53714;SDS011;39608;55.630;37.864;2024-03-08T21:57:30;1.38;;;1.00;;
53714;SDS011;39608;55.630;37.864;2024-03-08T22:02:32;1.27;;;0.80;;
53714;SDS011;39608;55.630;37.864;2024-03-08T22:07:36;1.63;;;0.98;;
53714;SDS011;39608;55.630;37.864;2024-03-08T22:12:38;2.30;;;0.98;;
53714;SDS011;39608;55.630;37.864;2024-03-08T22:17:40;1.20;;;0.80;;
53714;SDS011;39608;55.630;37.864;2024-03-08T22:22:43;1.63;;;1.00;;
53714;SDS011;39608;55.630;37.864;2024-03-08T22:27:46;2.22;;;0.85;;
53714;SDS011;39608;55.630;37.864;2024-03-08T22:32:48;1.08;;;0.88;;
53714;SDS011;39608;55.630;37.864;2024-03-08T22:37:55;0.93;;;0.82;;
53714;SDS011;39608;55.630;37.864;2024-03-08T22:42:57;3.92;;;1.30;;
53714;SDS011;39608;55.630;37.864;2024-03-08T22:47:59;2.28;;;0.90;;
53714;SDS011;39608;55.630;37.864;2024-03-08T22:53:02;4.03;;;1.35;;
53714;SDS011;39608;55.630;37.864;2024-03-08T22:58:04;1.00;;;0.90;;
53714;SDS011;39608;55.630;37.864;2024-03-08T23:03:09;1.10;;;0.98;;
53714;SDS011;39608;55.630;37.864;2024-03-08T23:08:14;4.55;;;1.25;;
53714;SDS011;39608;55.630;37.864;2024-03-08T23:13:18;3.00;;;1.10;;
53714;SDS011;39608;55.630;37.864;2024-03-08T23:18:20;4.25;;;0.95;;
53714;SDS011;39608;55.630;37.864;2024-03-08T23:23:24;1.35;;;0.77;;
53714;SDS011;39608;55.630;37.864;2024-03-08T23:28:26;3.15;;;1.80;;
53714;SDS011;39608;55.630;37.864;2024-03-08T23:33:29;2.42;;;1.80;;
53714;SDS011;39608;55.630;37.864;2024-03-08T23:38:32;2.22;;;1.30;;
53714;SDS011;39608;55.630;37.864;2024-03-08T23:43:34;1.73;;;1.42;;
53714;SDS011;39608;55.630;37.864;2024-03-08T23:48:37;1.48;;;0.90;;
53714;SDS011;39608;55.630;37.864;2024-03-08T23:53:41;2.63;;;1.70;;
53714;SDS011;39608;55.630;37.864;2024-03-08T23:58:43;2.22;;;1.08;;
